createdAt,value
2017-10-20T00:00:58.266Z,118.77
2017-10-20T00:03:28.533Z,109.60
2017-10-20T00:05:58.365Z,105.97
2017-10-20T00:08:28.504Z,96.30
2017-10-20T00:10:58.320Z,103.40
2017-10-20T00:13:28.435Z,109.73
2017-10-20T00:15:58.264Z,123.30
2017-10-20T00:18:29.460Z,112.43
2017-10-20T00:20:59.249Z,111.27
2017-10-20T00:23:29.397Z,120.50
2017-10-20T00:25:59.221Z,101.87
2017-10-20T00:28:29.385Z,97.83
2017-10-20T00:30:59.225Z,108.20
2017-10-20T00:33:30.258Z,106.30
2017-10-20T00:36:00.180Z,102.37
2017-10-20T00:38:30.275Z,97.60
2017-10-20T00:41:00.093Z,105.90
2017-10-20T00:43:30.249Z,112.10
2017-10-20T00:46:00.702Z,114.77
2017-10-20T00:48:30.901Z,119.50
2017-10-20T00:51:00.737Z,106.23
2017-10-20T00:53:31.466Z,104.87
2017-10-20T00:56:01.312Z,114.77
2017-10-20T00:58:31.599Z,117.03
2017-10-20T01:01:01.447Z,105.23
2017-10-20T01:03:31.530Z,106.70
2017-10-20T01:06:01.437Z,111.07
2017-10-20T01:08:31.588Z,126.70
2017-10-20T01:11:02.300Z,109.20
2017-10-20T01:13:32.149Z,116.53
2017-10-20T01:16:01.954Z,108.63
2017-10-20T01:18:32.665Z,99.57
2017-10-20T01:21:02.748Z,105.63
2017-10-20T01:23:32.836Z,103.47
2017-10-20T01:26:02.670Z,107.57
2017-10-20T01:28:32.500Z,109.43
2017-10-20T01:31:02.358Z,98.70
2017-10-20T01:33:32.179Z,96.23
2017-10-20T01:36:01.994Z,107.07
2017-10-20T01:38:31.830Z,99.30
2017-10-20T01:41:02.311Z,112.23
2017-10-20T01:43:32.137Z,103.37
2017-10-20T01:46:01.984Z,91.90
2017-10-20T01:48:31.774Z,100.47
2017-10-20T01:51:02.106Z,98.43
2017-10-20T01:53:31.938Z,97.27
2017-10-20T01:56:01.764Z,106.93
2017-10-20T01:58:31.581Z,105.97
2017-10-20T02:01:01.461Z,89.00
2017-10-20T02:03:31.325Z,97.53
2017-10-20T02:06:01.459Z,100.50
2017-10-20T02:08:32.026Z,85.50
2017-10-20T02:11:01.847Z,98.73
2017-10-20T02:13:31.692Z,86.97
2017-10-20T02:16:01.566Z,90.57
2017-10-20T02:18:31.371Z,89.70
2017-10-20T02:21:01.178Z,84.53
2017-10-20T02:23:31.021Z,78.03
2017-10-20T02:26:00.841Z,95.23
2017-10-20T02:28:30.682Z,85.57
2017-10-20T02:31:01.320Z,84.17
2017-10-20T02:33:31.153Z,81.37
2017-10-20T02:36:01.006Z,90.73
2017-10-20T02:38:30.841Z,93.20
2017-10-20T02:41:01.706Z,85.33
2017-10-20T02:43:31.548Z,82.80
2017-10-20T02:46:01.353Z,85.70
2017-10-20T02:48:31.206Z,87.27
2017-10-20T02:51:01.041Z,79.30
2017-10-20T02:53:30.846Z,77.50
2017-10-20T02:56:00.662Z,85.93
2017-10-20T02:58:30.501Z,77.03
2017-10-20T03:01:00.299Z,74.70
2017-10-20T03:03:30.145Z,77.13
2017-10-20T03:05:59.948Z,77.70
2017-10-20T03:08:29.781Z,74.63
2017-10-20T03:10:59.591Z,75.57
2017-10-20T03:13:29.409Z,86.63
2017-10-20T03:15:59.221Z,71.70
2017-10-20T03:18:29.063Z,85.83
2017-10-20T03:20:59.599Z,75.60
2017-10-20T03:23:29.410Z,76.77
2017-10-20T03:25:59.253Z,70.00
2017-10-20T03:28:29.092Z,74.93
2017-10-20T03:30:58.902Z,77.63
2017-10-20T03:33:29.031Z,76.37
2017-10-20T03:35:58.981Z,69.70
2017-10-20T03:38:28.825Z,76.20
2017-10-20T03:40:58.668Z,73.13
2017-10-20T03:43:28.924Z,74.10
2017-10-20T03:45:58.729Z,75.03
2017-10-20T03:48:28.531Z,68.83
2017-10-20T03:50:58.402Z,63.20
2017-10-20T03:53:28.237Z,72.00
2017-10-20T03:55:58.083Z,66.27
2017-10-20T03:58:27.910Z,66.00
2017-10-20T04:00:58.595Z,63.43
2017-10-20T04:03:28.400Z,61.80
2017-10-20T04:05:58.274Z,66.50
2017-10-20T04:08:28.108Z,66.70
2017-10-20T04:10:57.983Z,67.63
2017-10-20T04:13:27.853Z,64.53
2017-10-20T04:15:57.686Z,62.17
2017-10-20T04:18:27.573Z,63.77
2017-10-20T04:20:57.410Z,66.37
2017-10-20T04:23:27.253Z,59.27
2017-10-20T04:25:57.138Z,78.50
2017-10-20T04:28:26.979Z,70.10
2017-10-20T04:30:56.834Z,71.40
2017-10-20T04:33:26.610Z,78.23
2017-10-20T04:35:56.430Z,64.23
2017-10-20T04:38:26.240Z,64.43
2017-10-20T04:40:56.313Z,63.10
2017-10-20T04:43:26.137Z,61.67
2017-10-20T04:45:55.957Z,67.73
2017-10-20T04:48:25.765Z,63.37
2017-10-20T04:50:55.570Z,65.63
2017-10-20T04:53:31.266Z,67.43
2017-10-20T04:56:01.065Z,62.47
2017-10-20T04:58:30.908Z,72.70
2017-10-20T05:01:00.722Z,59.60
2017-10-20T05:03:30.669Z,63.30
2017-10-20T05:06:00.509Z,65.93
2017-10-20T05:08:30.365Z,60.10
2017-10-20T05:11:00.232Z,63.57
2017-10-20T05:13:30.100Z,57.10
2017-10-20T05:15:59.973Z,60.53
2017-10-20T05:18:29.783Z,62.07
2017-10-20T05:20:59.685Z,59.80
2017-10-20T05:23:29.623Z,60.13
2017-10-20T05:25:59.405Z,61.90
2017-10-20T05:28:29.233Z,58.50
2017-10-20T05:30:59.075Z,61.70
2017-10-20T05:33:28.884Z,55.30
2017-10-20T05:35:58.705Z,61.43
2017-10-20T05:38:28.572Z,54.47
2017-10-20T05:40:58.382Z,55.00
2017-10-20T05:43:28.561Z,53.50
2017-10-20T05:45:58.388Z,62.90
2017-10-20T05:48:28.504Z,54.10
2017-10-20T05:50:58.347Z,53.40
2017-10-20T05:53:28.553Z,52.40
2017-10-20T05:55:58.366Z,55.47
2017-10-20T05:58:28.491Z,55.63
2017-10-20T06:00:58.299Z,54.70
2017-10-20T06:03:28.545Z,50.80
2017-10-20T06:05:58.360Z,51.97
2017-10-20T06:08:28.862Z,59.13
2017-10-20T06:10:58.675Z,54.20
2017-10-20T06:13:28.482Z,49.23
2017-10-20T06:15:58.325Z,65.33
2017-10-20T06:18:28.141Z,51.20
2017-10-20T06:20:57.971Z,50.90
2017-10-20T06:23:27.805Z,54.93
2017-10-20T06:25:57.641Z,46.60
2017-10-20T06:28:27.457Z,63.23
2017-10-20T06:30:57.313Z,55.20
2017-10-20T06:33:27.129Z,52.23
2017-10-20T06:35:56.942Z,53.47
2017-10-20T06:38:26.736Z,45.13
2017-10-20T06:40:56.544Z,53.53
2017-10-20T06:43:26.361Z,46.70
2017-10-20T06:45:57.181Z,47.50
2017-10-20T06:48:26.974Z,51.77
2017-10-20T06:50:56.779Z,56.80
2017-10-20T06:53:26.613Z,54.30
2017-10-20T06:55:56.530Z,67.20
2017-10-20T06:58:26.375Z,53.60
2017-10-20T07:00:56.230Z,54.17
2017-10-20T07:03:26.065Z,47.00
2017-10-20T07:05:55.890Z,53.77
2017-10-20T07:08:25.718Z,46.63
2017-10-20T07:10:56.532Z,44.10
2017-10-20T07:13:30.153Z,48.07
2017-10-20T07:16:03.116Z,46.47
2017-10-20T07:18:34.230Z,51.33
2017-10-20T07:21:06.965Z,51.63
2017-10-20T07:23:40.659Z,47.63
2017-10-20T07:26:12.474Z,41.73
2017-10-20T07:28:42.379Z,43.87
2017-10-20T07:31:13.373Z,46.20
2017-10-20T07:33:43.155Z,47.67
2017-10-20T07:36:17.900Z,47.70
2017-10-20T07:38:48.444Z,45.87
2017-10-20T07:41:22.781Z,47.20
2017-10-20T07:43:55.035Z,47.63
2017-10-20T07:46:24.897Z,43.07
2017-10-20T07:48:54.723Z,43.90
2017-10-20T07:51:24.843Z,42.70
2017-10-20T07:53:54.729Z,41.53
2017-10-20T07:56:25.567Z,43.50
2017-10-20T07:58:55.380Z,43.57
2017-10-20T08:01:25.507Z,41.77
2017-10-20T08:03:55.322Z,43.77
2017-10-20T08:06:25.405Z,42.20
2017-10-20T08:08:55.218Z,46.10
2017-10-20T08:11:25.398Z,42.03
2017-10-20T08:13:55.237Z,48.07
2017-10-20T08:16:25.339Z,38.30
2017-10-20T08:18:55.289Z,48.47
2017-10-20T08:21:25.424Z,45.27
2017-10-20T08:23:55.274Z,42.40
2017-10-20T08:26:25.420Z,36.90
2017-10-20T08:28:55.243Z,41.20
2017-10-20T08:31:25.346Z,42.63
2017-10-20T08:33:55.171Z,38.77
2017-10-20T08:36:25.025Z,40.03
2017-10-20T08:38:54.855Z,36.90
2017-10-20T08:41:24.726Z,39.47
2017-10-20T08:43:54.573Z,44.60
2017-10-20T08:46:24.413Z,47.43
2017-10-20T08:48:54.271Z,38.57
2017-10-20T08:51:24.805Z,34.77
2017-10-20T08:53:54.627Z,39.43
2017-10-20T08:56:24.445Z,36.67
2017-10-20T08:58:54.259Z,35.83
2017-10-20T09:01:24.174Z,34.23
2017-10-20T09:03:54.068Z,36.97
2017-10-20T09:06:23.947Z,31.77
2017-10-20T09:08:54.276Z,35.60
2017-10-20T09:11:24.111Z,33.40
2017-10-20T09:13:53.949Z,34.70
2017-10-20T09:16:23.797Z,28.23
2017-10-20T09:18:53.590Z,30.30
2017-10-20T09:21:24.191Z,33.00
2017-10-20T09:23:55.763Z,39.20
2017-10-20T09:26:26.350Z,31.83
2017-10-20T09:28:56.210Z,30.17
2017-10-20T09:31:27.159Z,28.50
2017-10-20T09:33:57.849Z,31.13
2017-10-20T09:36:27.702Z,26.40
2017-10-20T09:38:59.195Z,28.07
2017-10-20T09:41:29.094Z,30.47
2017-10-20T09:43:58.946Z,31.03
2017-10-20T09:46:28.873Z,25.80
2017-10-20T09:48:59.090Z,33.73
2017-10-20T09:51:28.914Z,30.00
2017-10-20T09:53:59.036Z,28.57
2017-10-20T09:56:28.866Z,32.80
2017-10-20T09:58:58.683Z,25.50
2017-10-20T10:01:28.525Z,34.43
2017-10-20T10:03:58.847Z,27.27
2017-10-20T10:06:28.637Z,29.17
2017-10-20T10:08:58.500Z,28.67
2017-10-20T10:11:28.330Z,26.43
2017-10-20T10:13:58.160Z,31.57
2017-10-20T10:16:28.078Z,28.13
2017-10-20T10:18:57.884Z,28.77
2017-10-20T10:21:27.729Z,26.50
2017-10-20T10:23:57.629Z,28.73
2017-10-20T10:26:27.757Z,32.00
2017-10-20T10:28:57.573Z,32.50
2017-10-20T10:31:27.389Z,24.63
2017-10-20T10:33:57.190Z,29.27
2017-10-20T10:36:27.031Z,28.87
2017-10-20T10:38:56.849Z,30.03
2017-10-20T10:41:26.681Z,25.23
2017-10-20T10:43:56.539Z,26.90
2017-10-20T10:46:26.350Z,30.30
2017-10-20T10:48:56.191Z,27.27
2017-10-20T10:51:26.050Z,30.30
2017-10-20T10:53:55.870Z,29.20
2017-10-20T10:56:25.690Z,23.20
2017-10-20T10:58:55.541Z,31.47
2017-10-20T11:01:25.728Z,32.33
2017-10-20T11:03:55.613Z,27.67
2017-10-20T11:06:31.740Z,27.30
2017-10-20T11:09:07.382Z,22.77
2017-10-20T11:11:43.603Z,24.20
2017-10-20T11:14:13.439Z,25.60
2017-10-20T11:16:43.598Z,26.03
2017-10-20T11:19:13.394Z,24.67
2017-10-20T11:21:43.558Z,28.03
2017-10-20T11:24:13.359Z,24.43
2017-10-20T11:26:43.617Z,26.30
2017-10-20T11:29:13.623Z,33.20
2017-10-20T11:31:43.750Z,24.53
2017-10-20T11:34:13.599Z,24.40
2017-10-20T11:36:43.432Z,29.57
2017-10-20T11:39:13.257Z,28.33
2017-10-20T11:41:43.089Z,24.93
2017-10-20T11:44:12.912Z,25.90
2017-10-20T11:46:42.754Z,28.90
2017-10-20T11:49:12.761Z,28.33
2017-10-20T11:51:42.570Z,31.03
2017-10-20T11:54:12.438Z,32.70
2017-10-20T11:56:42.270Z,30.07
2017-10-20T11:59:12.168Z,29.87
2017-10-20T12:01:41.983Z,30.80
2017-10-20T12:04:11.831Z,26.33
2017-10-20T12:06:41.683Z,28.00
2017-10-20T12:09:11.499Z,27.07
2017-10-20T12:11:41.436Z,26.37
2017-10-20T12:14:11.296Z,29.93
2017-10-20T12:16:41.128Z,27.03
2017-10-20T12:19:11.223Z,27.43
2017-10-20T12:21:41.155Z,25.50
2017-10-20T12:24:11.037Z,29.13
2017-10-20T12:26:40.972Z,27.73
2017-10-20T12:29:10.910Z,27.30
2017-10-20T12:31:40.754Z,37.00
2017-10-20T12:34:10.607Z,27.33
2017-10-20T12:36:40.441Z,25.70
2017-10-20T12:39:10.596Z,37.40
2017-10-20T12:41:40.417Z,33.20
2017-10-20T12:44:10.594Z,33.03
2017-10-20T12:46:40.441Z,22.90
2017-10-20T12:49:10.569Z,26.67
2017-10-20T12:51:42.118Z,24.67
2017-10-20T12:54:13.654Z,33.03
2017-10-20T12:56:43.534Z,29.23
2017-10-20T12:59:13.735Z,32.57
2017-10-20T13:01:43.942Z,26.77
2017-10-20T13:04:14.040Z,25.73
2017-10-20T13:06:43.876Z,27.47
2017-10-20T13:09:14.006Z,30.77
2017-10-20T13:11:43.859Z,24.57
2017-10-20T13:14:14.038Z,28.13
2017-10-20T13:16:43.881Z,27.00
2017-10-20T13:19:13.816Z,26.93
2017-10-20T13:21:43.638Z,30.30
2017-10-20T13:24:13.495Z,28.67
2017-10-20T13:26:43.394Z,24.10
2017-10-20T13:29:13.206Z,27.13
2017-10-20T13:31:43.053Z,24.07
2017-10-20T13:34:12.876Z,29.60
2017-10-20T13:36:43.211Z,27.73
2017-10-20T13:39:13.059Z,29.73
2017-10-20T13:41:42.917Z,31.27
2017-10-20T13:44:12.767Z,41.07
2017-10-20T13:46:42.599Z,29.20
2017-10-20T13:49:12.465Z,31.70
2017-10-20T13:51:42.341Z,31.00
2017-10-20T13:54:12.197Z,25.90
2017-10-20T13:56:42.470Z,29.90
2017-10-20T13:59:13.217Z,30.90
2017-10-20T14:01:43.673Z,26.83
2017-10-20T14:04:13.494Z,32.40
2017-10-20T14:06:44.199Z,27.77
2017-10-20T14:09:14.068Z,27.63
2017-10-20T14:11:43.944Z,29.23
